Time;durP1;ratioP1;P1;durP2;ratioP2;P2;SDS_P1;SDS_P2;PMS_P1;PMS_P2;Temp;Humidity;BMP_temperature;BMP_pressure;BME280_temperature;BME280_humidity;BME280_pressure;Samples;Min_cycle;Max_cycle;Signal;HPM_P1;HPM_P2
2022/11/20 00:00:00;;;;;;;19.00;10.73;;;6.00;93.70;;;;;;10444362;28;20466;-64
2022/11/20 00:05:01;;;;;;;19.63;10.80;;;6.00;93.70;;;;;;10448224;28;20318;-61
2022/11/20 00:10:02;;;;;;;21.17;11.85;;;6.30;93.80;;;;;;10444594;28;20152;-61
2022/11/20 00:15:04;;;;;;;21.83;11.48;;;5.90;93.70;;;;;;10453270;28;20559;-61
2022/11/20 00:20:05;;;;;;;22.85;11.93;;;5.90;93.70;;;;;;10443685;28;20095;-61
2022/11/20 00:25:06;;;;;;;20.42;11.13;;;5.90;93.70;;;;;;10457026;28;20021;-62
2022/11/20 00:30:07;;;;;;;20.98;10.63;;;5.90;93.60;;;;;;10463898;28;20032;-61
2022/11/20 00:35:08;;;;;;;22.55;11.25;;;5.80;93.60;;;;;;10430722;28;20029;-60
2022/11/20 00:40:09;;;;;;;22.45;11.27;;;5.80;93.60;;;;;;10453522;28;20052;-60
2022/11/20 00:45:10;;;;;;;21.10;10.88;;;5.80;93.60;;;;;;10443252;28;20493;-65
2022/11/20 00:50:11;;;;;;;17.92;10.00;;;5.80;93.60;;;;;;10433634;28;20128;-61
2022/11/20 00:55:11;;;;;;;16.75;10.00;;;5.80;93.60;;;;;;10436783;28;20028;-61
2022/11/20 01:00:12;;;;;;;18.35;9.65;;;5.80;93.60;;;;;;10443018;28;20033;-60
2022/11/20 01:05:13;;;;;;;17.30;9.43;;;5.80;93.50;;;;;;10443210;28;20025;-61
2022/11/20 01:10:14;;;;;;;16.25;8.18;;;5.80;93.50;;;;;;10431849;28;20481;-60
2022/11/20 01:15:14;;;;;;;15.00;8.55;;;5.70;93.50;;;;;;10446864;28;20021;-61
2022/11/20 01:20:15;;;;;;;13.35;7.68;;;5.70;93.50;;;;;;10422408;28;20045;-60
2022/11/20 01:25:16;;;;;;;13.30;7.80;;;5.70;93.50;;;;;;10455854;28;20132;-60
2022/11/20 01:30:17;;;;;;;13.52;7.97;;;5.70;93.50;;;;;;10462924;28;20069;-61
2022/11/20 01:35:17;;;;;;;14.80;7.95;;;5.70;93.50;;;;;;10428786;28;20385;-60
2022/11/20 01:40:18;;;;;;;13.63;7.15;;;6.00;93.50;;;;;;10450822;28;20464;-61
2022/11/20 01:45:56;;;;;;;13.75;7.38;;;5.70;93.50;;;;;;10427389;28;20065;-61
2022/11/20 01:50:58;;;;;;;12.77;7.15;;;5.60;93.20;;;;;;10436239;28;20029;-60
2022/11/20 01:56:01;;;;;;;13.68;7.50;;;6.00;93.50;;;;;;10428180;28;20056;-60
2022/11/20 02:01:03;;;;;;;13.68;7.32;;;5.90;93.50;;;;;;10427732;28;20569;-61
2022/11/20 02:06:18;;;;;;;11.77;6.78;;;5.60;93.40;;;;;;10430021;28;20374;-61
2022/11/20 02:11:19;;;;;;;14.13;7.07;;;5.60;93.20;;;;;;10460525;28;20035;-61
2022/11/20 02:16:35;;;;;;;13.48;7.32;;;6.10;93.50;;;;;;10449283;28;20025;-60
2022/11/20 02:21:44;;;;;;;12.70;6.38;;;6.20;93.50;;;;;;10428791;28;20187;-61
2022/11/20 02:26:49;;;;;;;;;;;5.90;93.30;;;;;;10449869;28;20029;-60
2022/11/20 02:31:51;;;;;;;10.32;5.97;;;5.90;92.60;;;;;;10456139;28;20597;-60
2022/11/20 02:36:52;;;;;;;12.70;6.38;;;5.50;93.30;;;;;;10448298;28;20041;-60
2022/11/20 02:41:55;;;;;;;12.07;6.93;;;5.60;93.30;;;;;;10446831;28;20040;-63
2022/11/20 02:46:58;;;;;;;12.18;6.88;;;5.50;93.30;;;;;;10457518;28;20018;-65
2022/11/20 02:51:59;;;;;;;13.27;7.13;;;5.50;93.20;;;;;;10445364;28;20025;-60
2022/11/20 02:57:00;;;;;;;13.00;6.60;;;5.50;93.30;;;;;;10447305;28;20021;-61
2022/11/20 03:02:00;;;;;;;11.48;6.50;;;5.60;93.30;;;;;;10448218;28;20037;-64
2022/11/20 03:07:02;;;;;;;13.30;6.40;;;5.50;93.20;;;;;;10447466;28;20405;-61
2022/11/20 03:12:03;;;;;;;11.70;5.93;;;6.10;93.40;;;;;;10444588;28;20281;-61
2022/11/20 03:17:04;;;;;;;12.15;6.22;;;5.40;93.50;;;;;;10444059;28;20033;-64
2022/11/20 03:22:04;;;;;;;11.32;6.15;;;5.40;93.20;;;;;;10444079;28;20041;-60
2022/11/20 03:27:05;;;;;;;13.52;5.90;;;6.20;93.40;;;;;;10446360;28;20025;-61
2022/11/20 03:32:06;;;;;;;12.02;6.40;;;5.40;93.20;;;;;;10413319;28;20039;-61
2022/11/20 03:37:07;;;;;;;12.43;6.30;;;5.40;93.10;;;;;;10446368;28;20024;-61
2022/11/20 03:42:44;;;;;;;11.00;6.35;;;5.40;93.20;;;;;;10456749;28;20037;-63
2022/11/20 03:47:29;;;;;;;11.27;6.07;;;5.40;93.10;;;;;;10431154;28;20091;-60
2022/11/20 03:52:30;;;;;;;9.27;6.00;;;5.40;93.10;;;;;;10434275;28;20441;-60
2022/11/20 03:57:31;;;;;;;13.13;6.28;;;5.30;93.10;;;;;;10442455;28;20040;-60
2022/11/20 04:02:31;;;;;;;12.73;6.50;;;5.30;93.10;;;;;;10444978;28;20556;-60
2022/11/20 04:07:34;;;;;;;12.20;6.50;;;5.80;93.20;;;;;;10430350;28;20573;-61
2022/11/20 04:12:35;;;;;;;12.57;6.00;;;5.30;93.10;;;;;;10445233;28;20029;-61
2022/11/20 04:17:35;;;;;;;12.38;6.00;;;5.30;93.10;;;;;;10430302;28;20386;-60
2022/11/20 04:22:36;;;;;;;10.65;5.90;;;5.70;93.10;;;;;;10445348;28;20159;-61
2022/11/20 04:27:37;;;;;;;10.00;5.78;;;5.20;93.00;;;;;;10443703;28;20021;-61
2022/11/20 04:32:37;;;;;;;11.13;5.68;;;5.20;93.00;;;;;;10437825;28;20040;-60
2022/11/20 04:37:38;;;;;;;9.90;5.57;;;5.20;92.90;;;;;;10453938;28;20026;-61
2022/11/20 04:42:39;;;;;;;12.38;6.18;;;5.40;93.00;;;;;;10470933;28;20036;-61
2022/11/20 04:47:39;;;;;;;10.27;6.40;;;5.20;92.90;;;;;;10448344;28;20045;-60
2022/11/20 04:52:40;;;;;;;10.65;5.72;;;5.20;92.90;;;;;;10443296;28;20123;-60
2022/11/20 04:57:41;;;;;;;9.93;5.40;;;5.20;92.90;;;;;;10417037;28;20120;-63
2022/11/20 05:02:42;;;;;;;11.25;5.97;;;5.20;92.90;;;;;;10440590;28;20115;-60
2022/11/20 05:07:42;;;;;;;10.35;5.38;;;5.60;93.00;;;;;;10443189;28;20063;-61
2022/11/20 05:12:43;;;;;;;12.15;6.05;;;5.20;92.90;;;;;;10429998;28;20113;-60
2022/11/20 05:17:51;;;;;;;10.40;5.47;;;5.10;92.80;;;;;;10443109;28;20068;-60
2022/11/20 05:22:51;;;;;;;11.75;5.90;;;5.10;92.80;;;;;;10444286;28;20057;-60
2022/11/20 05:27:53;;;;;;;12.80;6.55;;;5.20;92.80;;;;;;10431574;28;20420;-60
2022/11/20 05:32:53;;;;;;;9.88;5.72;;;5.80;93.00;;;;;;10436315;28;20025;-60
2022/11/20 05:37:54;;;;;;;8.73;5.18;;;5.10;92.80;;;;;;10443936;28;20087;-61
2022/11/20 05:42:55;;;;;;;10.85;5.85;;;5.30;92.80;;;;;;10457762;28;20037;-60
2022/11/20 05:48:02;;;;;;;9.82;5.10;;;5.10;92.80;;;;;;10450310;28;20129;-60
2022/11/20 05:53:03;;;;;;;10.48;5.43;;;5.00;92.70;;;;;;10445328;28;20120;-60
2022/11/20 05:58:04;;;;;;;9.68;5.38;;;5.30;92.80;;;;;;10426633;28;20123;-61
2022/11/20 06:03:04;;;;;;;13.02;5.93;;;5.70;92.80;;;;;;10446513;28;20530;-60
2022/11/20 06:08:05;;;;;;;9.20;5.60;;;5.00;92.70;;;;;;10453492;28;20029;-61
2022/11/20 06:13:05;;;;;;;10.82;5.55;;;6.40;93.00;;;;;;10473252;28;20055;-60
2022/11/20 06:18:06;;;;;;;9.30;5.38;;;5.20;92.70;;;;;;10448921;28;20517;-60
2022/11/20 06:23:07;;;;;;;9.52;5.75;;;5.00;92.60;;;;;;10449472;28;20057;-61
2022/11/20 06:28:08;;;;;;;9.98;5.35;;;5.00;92.60;;;;;;10449004;28;20386;-60
2022/11/20 06:33:09;;;;;;;10.57;5.68;;;5.00;92.60;;;;;;10440056;28;20017;-60
2022/11/20 06:38:10;;;;;;;11.82;5.95;;;4.90;92.60;;;;;;10446969;28;20024;-60
2022/11/20 06:43:11;;;;;;;12.15;6.05;;;5.60;92.70;;;;;;10454305;28;20398;-60
2022/11/20 06:48:11;;;;;;;10.60;5.90;;;4.90;92.60;;;;;;10447991;28;20013;-62
2022/11/20 06:53:12;;;;;;;11.75;5.85;;;4.90;92.50;;;;;;10427164;28;20068;-61
2022/11/20 06:58:14;;;;;;;9.88;5.75;;;5.00;92.60;;;;;;10439669;28;20021;-60
2022/11/20 07:03:15;;;;;;;11.60;6.53;;;4.90;92.50;;;;;;10437342;28;20025;-60
2022/11/20 07:08:16;;;;;;;12.57;6.25;;;6.20;92.80;;;;;;10446484;28;20032;-61
2022/11/20 07:13:17;;;;;;;10.55;5.72;;;5.10;92.60;;;;;;10439741;28;20622;-60
2022/11/20 07:18:17;;;;;;;13.50;5.93;;;5.10;92.60;;;;;;10438691;28;20029;-61
2022/11/20 07:23:18;;;;;;;12.30;6.07;;;4.90;92.50;;;;;;10351503;28;20362;-60
2022/11/20 07:28:19;;;;;;;12.15;6.30;;;4.90;92.50;;;;;;10334625;28;20041;-60
2022/11/20 07:33:20;;;;;;;12.63;6.63;;;4.90;92.50;;;;;;10337624;28;20583;-60
2022/11/20 07:38:21;;;;;;;13.70;6.35;;;5.00;92.50;;;;;;10352803;28;20541;-60
2022/11/20 07:43:21;;;;;;;11.02;6.18;;;5.00;92.50;;;;;;10356362;28;20041;-60
2022/11/20 07:48:22;;;;;;;12.57;6.03;;;4.80;92.50;;;;;;10356702;28;20343;-61
2022/11/20 07:53:23;;;;;;;11.25;6.50;;;4.90;92.50;;;;;;10353752;28;20394;-60
2022/11/20 07:58:24;;;;;;;12.95;6.25;;;4.90;92.50;;;;;;10351025;28;20619;-62
2022/11/20 08:03:25;;;;;;;11.70;6.20;;;5.70;92.60;;;;;;10327760;28;20308;-61
2022/11/20 08:08:26;;;;;;;13.18;6.57;;;4.90;92.40;;;;;;10355209;28;20025;-60
2022/11/20 08:18:46;;;;;;;;;;;5.30;92.50;;;;;;10359174;28;20025;-60
2022/11/20 08:23:46;;;;;;;12.60;6.22;;;5.10;92.00;;;;;;10344447;28;20357;-59
2022/11/20 08:28:47;;;;;;;14.13;6.53;;;5.00;92.30;;;;;;10351286;28;20519;-60
2022/11/20 08:33:48;;;;;;;13.82;7.10;;;5.90;92.60;;;;;;10358073;28;20588;-60
2022/11/20 08:38:53;;;;;;;12.18;6.28;;;5.00;92.40;;;;;;10364638;28;20193;-64
2022/11/20 08:43:59;;;;;;;11.73;6.45;;;5.00;92.30;;;;;;10353733;28;20044;-60
2022/11/20 08:49:00;;;;;;;13.73;6.97;;;6.20;92.50;;;;;;10362626;28;20114;-61
2022/11/20 08:54:01;;;;;;;14.57;6.65;;;5.10;92.20;;;;;;10342553;28;20158;-60
2022/11/20 08:59:02;;;;;;;13.35;6.82;;;5.20;92.10;;;;;;10351154;28;20038;-61
2022/11/20 09:04:04;;;;;;;12.32;6.60;;;5.20;92.10;;;;;;10357821;28;20795;-60
2022/11/20 09:09:05;;;;;;;14.07;6.50;;;5.30;92.10;;;;;;10360601;28;20439;-60
2022/11/20 09:14:06;;;;;;;14.95;6.95;;;5.30;92.10;;;;;;10361933;28;20032;-60
2022/11/20 09:19:07;;;;;;;13.50;7.10;;;5.30;92.10;;;;;;10355420;28;20033;-60
2022/11/20 09:24:07;;;;;;;13.27;6.70;;;5.40;92.10;;;;;;10351086;28;20334;-60
2022/11/20 09:29:08;;;;;;;14.77;7.45;;;5.40;92.10;;;;;;10347745;28;20119;-60
2022/11/20 09:34:09;;;;;;;12.68;6.45;;;5.40;92.10;;;;;;10341838;28;20107;-61
2022/11/20 09:39:10;;;;;;;11.55;6.68;;;5.70;92.10;;;;;;10344596;28;20099;-60
2022/11/20 09:44:23;;;;;;;13.07;6.45;;;5.50;92.10;;;;;;10327277;28;20045;-60
2022/11/20 09:49:53;;;;;;;13.00;6.70;;;5.50;92.00;;;;;;10343908;28;20028;-60
2022/11/20 09:54:54;;;;;;;14.38;7.10;;;5.50;92.20;;;;;;10352397;28;20125;-60
2022/11/20 09:59:59;;;;;;;16.35;7.13;;;5.60;92.50;;;;;;10351163;28;20428;-60
2022/11/20 10:05:09;;;;;;;11.77;6.15;;;5.70;92.30;;;;;;10347191;28;20635;-60
2022/11/20 10:10:29;;;;;;;12.32;6.70;;;5.70;92.30;;;;;;10330808;28;20082;-60
2022/11/20 10:15:41;;;;;;;14.23;6.78;;;5.90;92.20;;;;;;10349258;28;20794;-63
2022/11/20 10:21:11;;;;;;;12.75;6.15;;;5.70;92.20;;;;;;10345613;28;20602;-60
2022/11/20 10:26:25;;;;;;;13.48;6.45;;;5.70;92.10;;;;;;10348581;28;20649;-60
2022/11/20 10:31:30;;;;;;;12.75;6.65;;;5.80;92.20;;;;;;10360743;28;20703;-62
2022/11/20 10:36:38;;;;;;;12.23;5.97;;;5.80;92.20;;;;;;10353984;28;20057;-62
2022/11/20 10:41:41;;;;;;;11.82;5.75;;;5.90;92.20;;;;;;10367436;28;20044;-61
2022/11/20 10:46:45;;;;;;;12.57;6.82;;;5.90;92.10;;;;;;10358169;28;20465;-61
2022/11/20 10:52:02;;;;;;;12.63;6.35;;;5.90;92.00;;;;;;10359587;28;20544;-62
2022/11/20 10:57:37;;;;;;;13.25;6.78;;;5.70;91.70;;;;;;10345707;28;20026;-60
2022/11/20 11:02:54;;;;;;;12.77;6.65;;;5.60;91.90;;;;;;10353070;28;20421;-61
2022/11/20 11:07:57;;;;;;;19.42;6.78;;;6.30;92.30;;;;;;10341099;28;20072;-61
2022/11/20 11:12:57;;;;;;;14.10;6.72;;;6.20;92.40;;;;;;10352436;28;20038;-61
2022/11/20 11:17:58;;;;;;;14.50;6.57;;;5.70;92.20;;;;;;10349770;28;20400;-61
2022/11/20 11:23:00;;;;;;;16.30;6.78;;;6.20;92.30;;;;;;10351876;28;20533;-61
2022/11/20 11:28:18;;;;;;;13.48;6.75;;;6.20;92.40;;;;;;10350848;28;20429;-63
2022/11/20 11:33:22;;;;;;;13.73;6.73;;;5.90;92.40;;;;;;10346998;28;20056;-62
2022/11/20 11:38:42;;;;;;;12.15;6.38;;;6.30;92.50;;;;;;10358792;28;20610;-63
2022/11/20 11:49:17;;;;;;;12.13;6.22;;;6.00;92.60;;;;;;10341029;28;20036;-64
2022/11/20 11:54:29;;;;;;;13.05;6.38;;;6.10;92.50;;;;;;10353599;28;21098;-62
2022/11/20 12:00:02;;;;;;;15.80;6.93;;;6.10;92.40;;;;;;10354545;28;20144;-62
2022/11/20 12:05:16;;;;;;;14.57;6.38;;;6.10;92.30;;;;;;10352156;28;20538;-62
2022/11/20 12:10:43;;;;;;;10.75;5.68;;;6.10;92.40;;;;;;10351191;28;20103;-62
2022/11/20 12:15:47;;;;;;;12.93;6.82;;;6.10;92.40;;;;;;10346960;28;20080;-62
2022/11/20 12:20:59;;;;;;;13.32;6.30;;;6.10;92.40;;;;;;10349997;28;20044;-62
2022/11/20 12:26:10;;;;;;;12.80;6.20;;;6.10;92.40;;;;;;10350361;28;20698;-63
2022/11/20 12:31:30;;;;;;;14.40;6.28;;;6.10;92.40;;;;;;10345815;28;20409;-63
2022/11/20 12:36:43;;;;;;;11.65;5.43;;;6.10;92.30;;;;;;10353554;28;20122;-62
2022/11/20 12:47:45;;;;;;;10.75;6.28;;;7.20;92.50;;;;;;10349621;28;20574;-62
2022/11/20 12:53:18;;;;;;;12.77;5.75;;;6.10;92.20;;;;;;10330535;28;20026;-62
2022/11/20 12:58:39;;;;;;;9.30;5.22;;;6.10;92.40;;;;;;10264958;28;20429;-61
2022/11/20 13:03:55;;;;;;;12.35;6.35;;;6.10;92.30;;;;;;10328837;28;20043;-62
2022/11/20 13:08:56;;;;;;;11.00;6.25;;;6.10;92.40;;;;;;10351278;28;20523;-64
2022/11/20 13:14:19;;;;;;;10.18;5.97;;;6.10;92.50;;;;;;10350656;28;20416;-63
2022/11/20 13:19:21;;;;;;;10.98;6.47;;;6.10;92.30;;;;;;10341035;28;20303;-63
2022/11/20 13:24:23;;;;;;;10.90;5.50;;;6.60;92.60;;;;;;10339150;28;20556;-62
2022/11/20 13:29:23;;;;;;;10.18;6.25;;;6.20;92.50;;;;;;10325823;28;20197;-63
2022/11/20 13:34:26;;;;;;;9.07;5.63;;;6.20;92.50;;;;;;10354470;28;20134;-62
2022/11/20 13:39:30;;;;;;;13.88;6.03;;;7.00;92.70;;;;;;10340493;28;20572;-63
2022/11/20 13:44:54;;;;;;;10.90;5.63;;;6.30;92.50;;;;;;10345828;28;20603;-65
2022/11/20 13:49:59;;;;;;;11.98;5.95;;;6.20;92.60;;;;;;10325267;28;20040;-63
2022/11/20 13:55:21;;;;;;;10.07;5.68;;;6.20;92.50;;;;;;10334628;28;20205;-62
2022/11/20 14:00:24;;;;;;;11.40;6.57;;;6.20;92.50;;;;;;10327238;28;20348;-63
2022/11/20 14:05:25;;;;;;;10.88;5.78;;;6.20;92.60;;;;;;10355424;28;20276;-63
2022/11/20 14:10:28;;;;;;;9.93;5.40;;;6.20;92.70;;;;;;10362391;28;20033;-62
2022/11/20 14:15:34;;;;;;;11.95;5.68;;;6.20;92.70;;;;;;10353513;28;20024;-62
2022/11/20 14:20:34;;;;;;;12.93;6.47;;;6.20;92.70;;;;;;10350318;28;20389;-62
2022/11/20 14:25:35;;;;;;;11.23;6.05;;;6.40;92.80;;;;;;10349155;28;20064;-61
2022/11/20 14:30:44;;;;;;;11.63;6.05;;;6.20;92.70;;;;;;10346839;28;20421;-62
2022/11/20 14:35:49;;;;;;;11.60;6.40;;;6.20;92.80;;;;;;10329885;28;20623;-63
2022/11/20 14:40:50;;;;;;;13.27;6.43;;;7.30;93.10;;;;;;10361263;28;20116;-65
2022/11/20 14:46:07;;;;;;;11.35;5.70;;;6.20;92.80;;;;;;10355589;28;20354;-61
2022/11/20 14:51:12;;;;;;;10.75;5.85;;;6.20;92.80;;;;;;10350779;28;20061;-62
2022/11/20 14:56:24;;;;;;;13.15;6.85;;;6.20;92.90;;;;;;10355980;28;20025;-62
2022/11/20 15:01:30;;;;;;;11.73;6.10;;;6.20;92.90;;;;;;10330996;28;20633;-62
2022/11/20 15:06:31;;;;;;;13.77;6.97;;;6.20;93.00;;;;;;10353937;28;20012;-62
2022/11/20 15:11:35;;;;;;;10.43;5.97;;;6.20;93.00;;;;;;10355598;28;20300;-63
2022/11/20 15:16:36;;;;;;;12.88;6.78;;;6.20;93.00;;;;;;10355120;28;20342;-62
2022/11/20 15:21:36;;;;;;;11.98;6.47;;;6.50;93.10;;;;;;10353647;28;20052;-64
2022/11/20 15:26:39;;;;;;;11.18;6.30;;;6.80;93.30;;;;;;10348888;28;20025;-63
2022/11/20 15:31:43;;;;;;;12.73;6.20;;;6.20;93.00;;;;;;10335375;28;20115;-62
2022/11/20 15:36:44;;;;;;;14.43;6.30;;;6.50;93.20;;;;;;10326534;28;20029;-61
2022/11/20 15:41:44;;;;;;;11.48;5.65;;;6.30;93.10;;;;;;10349904;28;20143;-62
2022/11/20 15:46:46;;;;;;;16.60;7.97;;;6.50;93.20;;;;;;10337892;28;20033;-61
2022/11/20 15:51:48;;;;;;;12.95;6.70;;;6.40;93.40;;;;;;10334674;28;20121;-60
2022/11/20 15:56:52;;;;;;;14.23;7.82;;;6.30;93.50;;;;;;10332663;28;20333;-60
2022/11/20 16:01:52;;;;;;;14.15;7.30;;;6.60;93.60;;;;;;10364577;28;20274;-60
2022/11/20 16:06:53;;;;;;;12.98;7.07;;;6.30;93.50;;;;;;10445202;28;20432;-60
2022/11/20 16:11:54;;;;;;;13.30;7.10;;;6.20;93.50;;;;;;10437425;28;20025;-60
2022/11/20 16:16:55;;;;;;;10.80;6.63;;;6.10;93.50;;;;;;10439354;28;20124;-62
2022/11/20 16:21:57;;;;;;;12.75;6.93;;;6.10;93.50;;;;;;10445585;28;20052;-60
2022/11/20 16:26:58;;;;;;;14.20;7.45;;;6.10;93.50;;;;;;10421815;28;20083;-61
2022/11/20 16:31:59;;;;;;;12.55;6.82;;;6.10;93.60;;;;;;10426402;28;20029;-61
2022/11/20 16:36:59;;;;;;;14.32;7.80;;;6.20;93.60;;;;;;10416153;28;20037;-62
2022/11/20 16:42:03;;;;;;;12.93;7.03;;;6.40;93.70;;;;;;10438022;28;20444;-61
2022/11/20 16:47:04;;;;;;;15.50;7.25;;;6.20;94.20;;;;;;10437241;28;20033;-60
2022/11/20 16:52:10;;;;;;;15.13;7.25;;;6.30;93.90;;;;;;10442951;28;20029;-61
2022/11/20 16:57:10;;;;;;;11.20;6.55;;;6.50;93.90;;;;;;10443737;28;20021;-62
2022/11/20 17:02:11;;;;;;;15.80;8.75;;;7.50;94.20;;;;;;10440600;28;20086;-62
2022/11/20 17:07:12;;;;;;;15.00;7.88;;;6.20;94.00;;;;;;10429994;28;20024;-62
2022/11/20 17:12:12;;;;;;;16.45;8.65;;;6.20;94.10;;;;;;10442249;28;20048;-61
2022/11/20 17:17:13;;;;;;;16.55;8.18;;;6.20;94.10;;;;;;10446547;28;20037;-62
2022/11/20 17:22:14;;;;;;;16.30;8.95;;;6.10;94.20;;;;;;10441539;28;20044;-63
2022/11/20 17:27:14;;;;;;;14.98;8.18;;;6.10;94.30;;;;;;10433430;28;20033;-62
2022/11/20 17:32:15;;;;;;;14.43;7.72;;;6.20;94.60;;;;;;10429754;28;20037;-61
2022/11/20 17:37:16;;;;;;;15.68;8.18;;;6.30;94.50;;;;;;10447858;28;20024;-62
2022/11/20 17:42:26;;;;;;;17.23;7.22;;;6.20;94.50;;;;;;10455376;28;20045;-62
2022/11/20 17:47:27;;;;;;;15.77;7.50;;;6.20;94.60;;;;;;10440288;28;20435;-62
2022/11/20 17:52:27;;;;;;;15.23;7.72;;;6.20;94.70;;;;;;10450212;28;20090;-63
2022/11/20 18:02:48;;;;;;;15.80;7.40;;;6.60;94.90;;;;;;10436813;28;20036;-62
2022/11/20 18:07:52;;;;;;;15.35;7.07;;;6.30;94.80;;;;;;10440349;28;20036;-61
2022/11/20 18:12:53;;;;;;;15.95;7.45;;;6.00;94.80;;;;;;10438998;28;20032;-62
2022/11/20 18:17:54;;;;;;;13.73;7.32;;;6.30;94.90;;;;;;10446918;28;20517;-62
2022/11/20 18:22:55;;;;;;;16.83;7.90;;;6.30;94.90;;;;;;10445905;28;20111;-61
2022/11/20 18:27:56;;;;;;;15.55;7.40;;;6.70;95.00;;;;;;10437729;28;20056;-61
2022/11/20 18:32:56;;;;;;;14.45;7.22;;;6.30;95.00;;;;;;10454609;28;20121;-61
2022/11/20 18:37:57;;;;;;;14.30;7.13;;;7.00;95.20;;;;;;10449162;28;20021;-61
2022/11/20 18:48:17;;;;;;;17.20;7.93;;;7.40;95.40;;;;;;10442029;28;20417;-61
2022/11/20 18:53:18;;;;;;;15.32;8.05;;;6.70;95.40;;;;;;10447287;28;20278;-61
2022/11/20 18:58:18;;;;;;;22.10;8.70;;;6.30;95.40;;;;;;10444430;28;20029;-62
2022/11/20 19:03:19;;;;;;;16.45;8.65;;;6.30;95.40;;;;;;10417531;28;20525;-62
2022/11/20 19:08:20;;;;;;;19.15;7.85;;;6.40;95.70;;;;;;10440021;28;20033;-63
2022/11/20 19:13:20;;;;;;;20.95;8.15;;;6.40;95.50;;;;;;10444649;28;20086;-64
2022/11/20 19:18:21;;;;;;;16.63;8.00;;;6.40;95.60;;;;;;10449976;28;20171;-62
2022/11/20 19:23:22;;;;;;;18.10;8.40;;;6.70;95.80;;;;;;10455059;28;20147;-62
2022/11/20 19:28:23;;;;;;;17.95;8.27;;;6.50;95.80;;;;;;10442915;28;20094;-63
2022/11/20 19:33:24;;;;;;;13.02;7.05;;;6.40;95.90;;;;;;10445739;28;20101;-64
2022/11/20 19:38:24;;;;;;;17.58;8.07;;;6.50;95.90;;;;;;10449024;28;20525;-64
2022/11/20 19:43:25;;;;;;;18.23;8.90;;;6.60;96.00;;;;;;10466317;28;20292;-63
2022/11/20 19:48:29;;;;;;;13.30;7.93;;;6.40;96.00;;;;;;10453623;28;20090;-63
2022/11/20 19:53:30;;;;;;;19.88;8.48;;;6.40;96.10;;;;;;10435953;28;20017;-63
2022/11/20 19:58:30;;;;;;;17.55;8.57;;;6.60;96.20;;;;;;10443809;28;20017;-66
2022/11/20 20:03:31;;;;;;;16.58;7.78;;;6.50;96.10;;;;;;10453953;28;20033;-64
2022/11/20 20:08:32;;;;;;;17.85;8.32;;;7.00;96.20;;;;;;10436227;28;20028;-63
2022/11/20 20:13:33;;;;;;;13.88;7.82;;;6.50;96.10;;;;;;10441211;28;20033;-63
2022/11/20 20:18:33;;;;;;;18.40;8.73;;;6.40;96.00;;;;;;10453174;28;20048;-63
2022/11/20 20:23:34;;;;;;;15.52;7.63;;;6.40;96.00;;;;;;10453228;28;20714;-62
2022/11/20 20:28:36;;;;;;;17.10;8.55;;;6.40;96.00;;;;;;10446804;28;20462;-63
2022/11/20 20:33:38;;;;;;;16.95;8.38;;;6.40;96.00;;;;;;10450382;28;20028;-62
2022/11/20 20:38:39;;;;;;;18.85;8.40;;;6.40;95.90;;;;;;10447735;28;20082;-62
2022/11/20 20:49:00;;;;;;;16.55;8.48;;;6.40;95.90;;;;;;10449053;28;20441;-63
2022/11/20 20:54:01;;;;;;;17.85;8.70;;;6.40;95.90;;;;;;10440188;28;20091;-62
2022/11/20 20:59:03;;;;;;;15.30;7.85;;;6.40;95.90;;;;;;10449072;28;20048;-63
2022/11/20 21:04:03;;;;;;;18.67;8.07;;;6.30;95.80;;;;;;10439476;28;20041;-63
2022/11/20 21:09:04;;;;;;;15.77;8.57;;;6.30;95.80;;;;;;10442565;28;20025;-63
2022/11/20 21:14:05;;;;;;;18.55;8.32;;;6.40;95.80;;;;;;10440469;28;20024;-64
2022/11/20 21:19:06;;;;;;;21.48;8.73;;;6.50;95.80;;;;;;10441140;28;20111;-64
2022/11/20 21:24:07;;;;;;;17.27;8.02;;;6.40;95.80;;;;;;10434807;28;20378;-62
2022/11/20 21:29:08;;;;;;;17.60;8.48;;;6.30;95.80;;;;;;10440106;28;20119;-62
2022/11/20 21:34:11;;;;;;;15.65;8.15;;;6.30;95.80;;;;;;10439735;28;20028;-62
2022/11/20 21:39:13;;;;;;;20.38;8.80;;;6.30;95.80;;;;;;10419279;28;20049;-63
2022/11/20 21:44:14;;;;;;;19.05;9.20;;;6.30;95.80;;;;;;10434333;28;20073;-62
2022/11/20 21:49:17;;;;;;;18.13;8.90;;;6.30;95.70;;;;;;10429472;28;20466;-62
2022/11/20 21:54:17;;;;;;;19.08;9.52;;;6.30;95.70;;;;;;10424622;28;20482;-63
2022/11/20 21:59:18;;;;;;;19.77;9.10;;;6.30;95.70;;;;;;10421419;28;20072;-63
2022/11/20 22:04:20;;;;;;;16.80;8.13;;;6.40;95.70;;;;;;10423107;28;20041;-62
2022/11/20 22:09:21;;;;;;;22.33;10.20;;;6.90;95.80;;;;;;10433271;28;20036;-63
2022/11/20 22:14:22;;;;;;;18.73;8.55;;;6.30;95.70;;;;;;10425758;28;20033;-63
2022/11/20 22:19:23;;;;;;;19.20;9.23;;;6.40;95.70;;;;;;10425228;28;20021;-62
2022/11/20 22:24:23;;;;;;;18.77;10.00;;;7.20;95.90;;;;;;10432264;28;20095;-62
2022/11/20 22:29:25;;;;;;;18.30;8.35;;;6.50;95.70;;;;;;10427011;28;20045;-63
2022/11/20 22:34:26;;;;;;;23.77;9.95;;;6.30;95.70;;;;;;10419902;28;20398;-63
2022/11/20 22:39:26;;;;;;;23.52;9.57;;;6.30;95.70;;;;;;10413792;28;20025;-62
2022/11/20 22:44:27;;;;;;;17.25;8.50;;;6.40;95.70;;;;;;10415768;28;20406;-62
2022/11/20 22:49:28;;;;;;;19.85;9.02;;;6.30;95.70;;;;;;10458839;28;20510;-63
2022/11/20 22:54:28;;;;;;;17.30;8.50;;;7.00;95.80;;;;;;10446130;28;20021;-63
2022/11/20 22:59:29;;;;;;;17.73;8.35;;;6.30;95.70;;;;;;10447827;28;20421;-63
2022/11/20 23:04:30;;;;;;;18.42;8.93;;;6.30;95.70;;;;;;10446353;28;20048;-62
2022/11/20 23:09:31;;;;;;;18.52;8.85;;;6.30;95.60;;;;;;10447704;28;20029;-62
2022/11/20 23:14:31;;;;;;;21.55;8.77;;;6.30;95.60;;;;;;10443004;28;20120;-62
2022/11/20 23:19:32;;;;;;;19.00;9.00;;;6.30;95.60;;;;;;10453043;28;20540;-63
2022/11/20 23:24:33;;;;;;;19.85;8.63;;;6.30;95.60;;;;;;10445668;28;20055;-63
2022/11/20 23:29:33;;;;;;;18.67;9.15;;;6.60;95.70;;;;;;10415066;28;20025;-63
2022/11/20 23:34:34;;;;;;;17.00;8.90;;;6.50;95.90;;;;;;10440692;28;20029;-62
2022/11/20 23:39:34;;;;;;;20.05;9.32;;;6.30;95.60;;;;;;10458164;28;20377;-63
2022/11/20 23:44:35;;;;;;;16.85;8.10;;;6.40;95.60;;;;;;10442256;28;20033;-64
2022/11/20 23:49:36;;;;;;;17.17;8.73;;;6.30;95.60;;;;;;10434608;28;20055;-63
2022/11/20 23:54:37;;;;;;;18.48;8.73;;;6.30;95.60;;;;;;10445527;28;20025;-63
2022/11/20 23:59:37;;;;;;;17.13;8.40;;;6.50;95.70;;;;;;10445547;28;20075;-64
